Time;durP1;ratioP1;P1;durP2;ratioP2;P2;SDS_P1;SDS_P2;PMS_P1;PMS_P2;Temp;Humidity;BMP_temperature;BMP_pressure;BME280_temperature;BME280_humidity;BME280_pressure;Samples;Min_cycle;Max_cycle;Signal;HPM_P1;HPM_P2
2023/03/03 00:01:04;;;;;;;33.35;18.65;;;4.40;65.10;;;;;;4920479;29;20235;-78
2023/03/03 00:03:33;;;;;;;27.42;16.05;;;4.50;65.10;;;;;;4933234;29;20541;-78
2023/03/03 00:06:02;;;;;;;30.05;16.70;;;4.50;65.10;;;;;;4940518;29;20200;-78
2023/03/03 00:08:32;;;;;;;27.13;15.40;;;4.50;65.20;;;;;;4937253;29;20213;-78
2023/03/03 00:11:02;;;;;;;29.55;15.70;;;4.50;65.20;;;;;;4917919;29;20595;-78
2023/03/03 00:13:31;;;;;;;28.80;16.45;;;4.50;65.20;;;;;;4936001;29;20223;-79
2023/03/03 00:16:13;;;;;;;29.48;17.73;;;4.50;65.10;;;;;;4935939;29;20203;-79
2023/03/03 00:18:43;;;;;;;47.50;24.85;;;4.50;64.90;;;;;;4932669;29;20255;-80
2023/03/03 00:21:29;;;;;;;40.80;20.48;;;4.40;64.90;;;;;;4919930;29;20632;-79
2023/03/03 00:24:36;;;;;;;38.15;20.30;;;4.30;65.00;;;;;;4930072;29;20212;-79
2023/03/03 00:27:18;;;;;;;39.78;20.65;;;4.20;65.00;;;;;;4929300;29;20227;-78
2023/03/03 00:29:48;;;;;;;50.75;25.35;;;4.10;65.10;;;;;;4927356;29;20220;-79
2023/03/03 00:32:23;;;;;;;44.83;22.02;;;4.10;65.10;;;;;;4929943;29;20232;-80
2023/03/03 00:34:54;;;;;;;36.80;19.67;;;4.10;65.20;;;;;;4936259;29;20216;-77
2023/03/03 00:37:31;;;;;;;38.38;21.48;;;4.10;65.30;;;;;;4930841;29;20238;-79
2023/03/03 00:40:19;;;;;;;35.45;18.35;;;4.00;65.20;;;;;;4934148;29;20223;-79
2023/03/03 00:42:50;;;;;;;35.17;16.88;;;4.00;65.30;;;;;;4915346;29;20240;-79
2023/03/03 00:45:26;;;;;;;60.03;28.10;;;3.90;65.50;;;;;;4934012;29;20678;-79
2023/03/03 00:47:55;;;;;;;81.25;34.22;;;3.90;65.50;;;;;;4934481;29;20672;-79
2023/03/03 00:50:33;;;;;;;54.58;25.17;;;3.90;65.70;;;;;;4939706;29;20212;-79
2023/03/03 00:53:05;;;;;;;26.70;15.90;;;3.90;65.60;;;;;;4914117;29;20667;-80
2023/03/03 00:55:35;;;;;;;39.03;20.40;;;3.80;65.60;;;;;;4937586;29;20196;-79
2023/03/03 00:58:04;;;;;;;48.30;23.25;;;3.80;65.60;;;;;;4917433;29;20279;-80
2023/03/03 01:00:37;;;;;;;40.75;20.85;;;3.70;65.70;;;;;;4930205;29;20768;-79
2023/03/03 01:03:09;;;;;;;27.10;15.98;;;3.70;65.70;;;;;;4924852;29;20295;-79
2023/03/03 01:05:37;;;;;;;37.05;18.38;;;3.70;65.80;;;;;;4937466;28;20208;-79
2023/03/03 01:08:06;;;;;;;34.25;18.00;;;3.70;65.80;;;;;;4935150;29;20208;-79
2023/03/03 01:10:38;;;;;;;41.17;20.27;;;3.70;66.00;;;;;;4935432;29;20200;-79
2023/03/03 01:13:08;;;;;;;88.10;37.03;;;3.70;66.10;;;;;;4916142;29;20356;-79
2023/03/03 01:15:37;;;;;;;71.28;29.38;;;3.80;66.10;;;;;;4933561;29;20204;-80
2023/03/03 01:18:05;;;;;;;43.55;22.20;;;3.80;66.10;;;;;;4931501;29;20200;-80
2023/03/03 01:20:33;;;;;;;33.08;16.60;;;3.80;66.20;;;;;;4938689;29;20216;-80
2023/03/03 01:23:01;;;;;;;28.40;17.17;;;3.80;66.20;;;;;;4936186;29;20203;-80
2023/03/03 01:25:29;;;;;;;39.95;20.27;;;3.80;66.00;;;;;;4929003;29;20209;-79
2023/03/03 01:27:58;;;;;;;67.43;29.67;;;3.80;65.90;;;;;;4930271;29;20216;-79
2023/03/03 01:30:27;;;;;;;49.55;22.48;;;3.70;66.00;;;;;;4925096;29;20330;-79
2023/03/03 01:32:56;;;;;;;31.75;16.95;;;3.70;66.10;;;;;;4933333;29;20841;-80
2023/03/03 01:35:24;;;;;;;24.05;14.60;;;3.70;66.10;;;;;;4926561;29;20265;-80
2023/03/03 01:37:52;;;;;;;32.45;15.93;;;3.70;66.20;;;;;;4936015;29;20235;-80
2023/03/03 01:40:22;;;;;;;30.25;16.13;;;3.70;66.10;;;;;;4914028;29;20224;-80
2023/03/03 01:42:51;;;;;;;25.55;15.18;;;3.70;66.20;;;;;;4930820;29;20213;-80
2023/03/03 01:45:23;;;;;;;29.30;16.17;;;3.70;66.30;;;;;;4928191;29;20236;-79
2023/03/03 01:48:01;;;;;;;53.42;20.02;;;3.80;66.30;;;;;;4927399;29;20205;-80
2023/03/03 01:50:40;;;;;;;38.40;19.15;;;3.70;66.10;;;;;;4937286;29;20642;-80
2023/03/03 01:53:15;;;;;;;27.98;15.55;;;3.70;65.90;;;;;;4930617;29;20216;-80
2023/03/03 01:55:45;;;;;;;33.42;16.90;;;3.60;66.00;;;;;;4930201;29;20200;-79
2023/03/03 01:58:21;;;;;;;23.73;14.25;;;3.50;66.00;;;;;;4924832;29;20204;-80
2023/03/03 02:00:53;;;;;;;28.15;15.40;;;3.50;66.10;;;;;;4922575;29;20232;-80
2023/03/03 02:03:24;;;;;;;27.70;15.10;;;3.50;66.20;;;;;;4937499;29;20215;-79
2023/03/03 02:05:56;;;;;;;36.47;17.55;;;3.50;66.10;;;;;;4933684;29;20215;-80
2023/03/03 02:08:34;;;;;;;59.88;24.98;;;3.40;66.00;;;;;;4920206;29;20576;-81
2023/03/03 02:11:03;;;;;;;34.92;17.65;;;3.30;66.10;;;;;;4928790;29;20211;-80
2023/03/03 02:13:33;;;;;;;28.65;14.95;;;3.30;66.30;;;;;;4926578;29;20206;-79
2023/03/03 02:16:04;;;;;;;36.00;17.92;;;3.30;66.40;;;;;;4930621;29;20233;-79
2023/03/03 02:18:33;;;;;;;25.90;15.18;;;3.30;66.40;;;;;;4931645;29;20654;-79
2023/03/03 02:21:07;;;;;;;25.95;14.73;;;3.20;66.40;;;;;;4929944;29;20227;-78
2023/03/03 02:23:43;;;;;;;29.88;15.93;;;3.20;66.50;;;;;;4921231;29;20211;-79
2023/03/03 02:26:17;;;;;;;28.60;14.95;;;3.20;66.60;;;;;;4914954;29;20869;-79
2023/03/03 02:28:45;;;;;;;28.52;16.65;;;3.20;66.60;;;;;;4928512;29;20300;-81
2023/03/03 02:31:15;;;;;;;37.65;19.85;;;3.20;66.70;;;;;;4928258;29;20584;-80
2023/03/03 02:33:46;;;;;;;28.20;17.65;;;3.20;66.60;;;;;;4918313;29;20232;-79
2023/03/03 02:36:17;;;;;;;29.98;15.30;;;3.20;66.60;;;;;;4927231;29;20204;-78
2023/03/03 02:38:51;;;;;;;26.95;14.05;;;3.20;66.70;;;;;;4931062;29;20216;-79
2023/03/03 02:41:29;;;;;;;26.35;15.60;;;3.20;66.70;;;;;;4916662;29;20563;-79
2023/03/03 02:44:00;;;;;;;27.58;14.98;;;3.20;66.70;;;;;;4914212;29;20213;-80
2023/03/03 02:46:34;;;;;;;27.30;15.25;;;3.20;66.70;;;;;;4920665;29;20722;-80
2023/03/03 02:49:02;;;;;;;29.10;15.75;;;3.10;66.80;;;;;;4921207;29;20215;-78
2023/03/03 02:51:31;;;;;;;26.23;15.50;;;3.20;66.90;;;;;;4930994;29;20230;-79
2023/03/03 02:54:00;;;;;;;28.20;15.95;;;3.20;66.80;;;;;;4909310;29;20215;-80
2023/03/03 02:56:31;;;;;;;27.40;15.40;;;3.10;66.80;;;;;;4916312;29;20201;-79
2023/03/03 02:58:59;;;;;;;30.42;16.15;;;3.20;66.90;;;;;;4930108;29;20270;-79
2023/03/03 03:01:35;;;;;;;26.77;14.57;;;3.20;66.90;;;;;;4929545;29;20228;-79
2023/03/03 03:04:08;;;;;;;28.45;15.43;;;3.20;67.00;;;;;;4926364;29;20192;-81
2023/03/03 03:06:38;;;;;;;24.33;14.10;;;3.20;66.90;;;;;;4920244;29;20212;-81
2023/03/03 03:09:07;;;;;;;28.52;14.82;;;3.20;66.90;;;;;;4925064;29;20200;-80
2023/03/03 03:11:37;;;;;;;26.23;15.45;;;3.20;66.90;;;;;;4927862;29;20192;-81
2023/03/03 03:14:07;;;;;;;26.45;15.00;;;3.20;67.00;;;;;;4911861;29;20268;-80
2023/03/03 03:16:36;;;;;;;27.58;16.05;;;3.20;67.00;;;;;;4921292;29;20209;-81
2023/03/03 03:19:05;;;;;;;27.73;15.40;;;3.20;67.00;;;;;;4917923;29;20993;-80
2023/03/03 03:21:34;;;;;;;27.02;15.77;;;3.20;66.90;;;;;;4913011;29;20228;-80
2023/03/03 03:24:05;;;;;;;27.33;15.82;;;3.10;66.60;;;;;;4932580;29;20677;-81
2023/03/03 03:26:35;;;;;;;33.42;15.90;;;3.00;66.60;;;;;;4924229;29;20209;-79
2023/03/03 03:29:05;;;;;;;26.92;15.13;;;3.00;66.70;;;;;;4941552;28;20605;-80
2023/03/03 03:31:33;;;;;;;28.50;16.38;;;2.90;66.70;;;;;;4931202;29;20317;-80
2023/03/03 03:34:02;;;;;;;28.58;15.65;;;2.90;66.60;;;;;;4936836;29;20729;-79
2023/03/03 03:36:31;;;;;;;24.90;15.40;;;2.80;66.60;;;;;;4937090;29;20212;-79
2023/03/03 03:39:01;;;;;;;29.65;18.23;;;2.70;66.60;;;;;;4919629;29;20299;-78
2023/03/03 03:41:30;;;;;;;27.25;15.15;;;2.70;66.90;;;;;;4934911;29;20228;-79
2023/03/03 03:43:59;;;;;;;38.63;18.75;;;2.70;66.90;;;;;;4926055;29;20204;-78
2023/03/03 03:46:27;;;;;;;31.63;17.27;;;2.60;66.90;;;;;;4932226;29;20204;-78
2023/03/03 03:48:55;;;;;;;34.15;18.10;;;2.60;66.90;;;;;;4932994;29;20204;-79
2023/03/03 03:51:24;;;;;;;27.60;15.60;;;2.60;67.10;;;;;;4933665;29;20208;-79
2023/03/03 03:53:52;;;;;;;33.80;16.50;;;2.60;67.20;;;;;;4935924;29;20208;-79
2023/03/03 03:56:20;;;;;;;29.05;16.30;;;2.70;67.30;;;;;;4936244;29;20201;-79
2023/03/03 03:58:52;;;;;;;29.48;16.92;;;2.70;67.30;;;;;;4933536;29;20208;-79
2023/03/03 04:01:22;;;;;;;33.05;18.10;;;2.70;67.20;;;;;;4925741;29;20239;-79
2023/03/03 04:03:50;;;;;;;28.38;15.25;;;2.70;67.10;;;;;;4907987;29;20216;-79
2023/03/03 04:06:22;;;;;;;29.80;16.88;;;2.70;67.00;;;;;;4934718;29;20916;-79
2023/03/03 04:08:50;;;;;;;30.63;16.48;;;2.60;67.10;;;;;;4921763;29;20219;-79
2023/03/03 04:11:21;;;;;;;25.52;16.80;;;2.60;67.20;;;;;;4927758;29;20250;-79
2023/03/03 04:13:49;;;;;;;30.58;16.90;;;2.60;67.30;;;;;;4923392;29;20286;-79
2023/03/03 04:16:24;;;;;;;31.48;15.63;;;2.70;67.30;;;;;;4938020;29;20570;-77
2023/03/03 04:18:52;;;;;;;30.90;16.48;;;2.70;67.20;;;;;;4919404;29;20199;-78
2023/03/03 04:21:21;;;;;;;34.08;16.13;;;2.70;67.20;;;;;;4944531;29;20617;-79
2023/03/03 04:24:09;;;;;;;25.88;14.77;;;2.60;67.20;;;;;;4918996;29;20205;-80
2023/03/03 04:26:38;;;;;;;27.88;16.20;;;2.60;67.20;;;;;;4907147;29;20232;-80
2023/03/03 04:29:07;;;;;;;28.55;15.43;;;2.60;67.20;;;;;;4938839;29;20197;-78
2023/03/03 04:31:36;;;;;;;27.20;16.10;;;2.60;67.30;;;;;;4930200;29;20231;-78
2023/03/03 04:34:06;;;;;;;33.83;18.85;;;2.60;67.40;;;;;;4918130;29;20291;-78
2023/03/03 04:36:35;;;;;;;29.50;17.35;;;2.60;67.10;;;;;;4933645;29;20568;-79
2023/03/03 04:39:03;;;;;;;30.52;15.70;;;2.50;67.00;;;;;;4922723;29;20218;-81
2023/03/03 04:41:31;;;;;;;29.67;16.60;;;2.50;67.10;;;;;;4924404;29;20204;-79
2023/03/03 04:44:00;;;;;;;26.90;16.30;;;2.40;67.20;;;;;;4919148;29;20255;-79
2023/03/03 04:46:29;;;;;;;35.30;16.73;;;2.40;67.30;;;;;;4935216;29;20191;-79
2023/03/03 04:48:59;;;;;;;42.45;21.35;;;2.50;67.40;;;;;;4932656;29;20196;-79
2023/03/03 04:51:27;;;;;;;45.40;19.02;;;2.50;67.30;;;;;;4936153;29;20235;-78
2023/03/03 04:53:56;;;;;;;31.83;16.75;;;2.50;67.30;;;;;;4924243;29;20566;-81
2023/03/03 04:56:24;;;;;;;34.85;19.17;;;2.50;67.50;;;;;;4935764;29;20207;-80
2023/03/03 04:58:52;;;;;;;32.55;16.75;;;2.50;67.50;;;;;;4929324;29;20287;-79
2023/03/03 05:01:20;;;;;;;32.75;18.33;;;2.50;67.50;;;;;;4935423;29;20241;-79
2023/03/03 05:03:48;;;;;;;29.63;16.60;;;2.50;67.40;;;;;;4931502;29;20208;-79
2023/03/03 05:06:18;;;;;;;37.03;18.20;;;2.50;67.30;;;;;;4920424;29;20207;-79
2023/03/03 05:08:47;;;;;;;28.98;16.63;;;2.50;67.30;;;;;;4924223;29;20591;-79
2023/03/03 05:11:15;;;;;;;32.03;15.30;;;2.50;67.40;;;;;;4912046;29;20737;-79
2023/03/03 05:13:43;;;;;;;32.00;17.40;;;2.50;67.40;;;;;;4918900;29;20204;-79
2023/03/03 05:16:11;;;;;;;30.52;15.43;;;2.50;67.50;;;;;;4937813;29;20278;-79
2023/03/03 05:18:40;;;;;;;30.75;17.73;;;2.50;67.50;;;;;;4934921;29;20666;-79
2023/03/03 05:21:08;;;;;;;30.48;17.75;;;2.50;67.50;;;;;;4936680;29;20219;-78
2023/03/03 05:23:37;;;;;;;32.13;17.48;;;2.60;67.50;;;;;;4931925;29;20251;-79
2023/03/03 05:26:05;;;;;;;29.20;15.95;;;2.50;67.30;;;;;;4933497;29;20207;-79
2023/03/03 05:28:34;;;;;;;34.97;17.98;;;2.50;67.30;;;;;;4914552;29;20575;-79
2023/03/03 05:31:03;;;;;;;33.50;15.93;;;2.50;67.30;;;;;;4933006;29;20718;-79
2023/03/03 05:33:31;;;;;;;32.33;16.63;;;2.50;67.40;;;;;;4928127;29;20204;-79
2023/03/03 05:35:58;;;;;;;36.08;18.45;;;2.50;67.40;;;;;;4934031;29;20237;-79
2023/03/03 05:38:26;;;;;;;36.92;18.45;;;2.40;67.30;;;;;;4932276;29;20903;-79
2023/03/03 05:40:56;;;;;;;29.45;16.45;;;2.40;67.20;;;;;;4921565;29;20200;-79
2023/03/03 05:43:24;;;;;;;32.13;18.27;;;2.30;67.20;;;;;;4935563;29;20595;-79
2023/03/03 05:45:55;;;;;;;31.45;17.95;;;2.30;67.30;;;;;;4935155;29;20203;-79
2023/03/03 05:48:23;;;;;;;29.67;17.92;;;2.30;67.20;;;;;;4935556;29;20203;-79
2023/03/03 05:50:51;;;;;;;34.00;18.35;;;2.20;67.30;;;;;;4930672;29;20212;-80
2023/03/03 05:53:19;;;;;;;32.63;17.05;;;2.20;67.30;;;;;;4933642;29;20217;-80
2023/03/03 05:55:47;;;;;;;41.97;20.63;;;2.20;67.40;;;;;;4930511;29;20287;-80
2023/03/03 05:58:16;;;;;;;39.22;21.75;;;2.10;67.30;;;;;;4936239;29;20196;-79
2023/03/03 06:00:44;;;;;;;36.70;21.38;;;2.10;67.30;;;;;;4912682;29;20236;-79
2023/03/03 06:03:12;;;;;;;38.30;21.48;;;2.00;67.40;;;;;;4933220;29;20212;-78
2023/03/03 06:05:40;;;;;;;37.00;20.35;;;2.00;67.60;;;;;;4913921;29;20232;-78
2023/03/03 06:08:10;;;;;;;37.92;19.95;;;2.10;67.70;;;;;;4913896;29;20674;-78
2023/03/03 06:10:40;;;;;;;35.00;19.23;;;2.10;67.80;;;;;;4935715;29;20668;-79
2023/03/03 06:13:10;;;;;;;33.05;18.92;;;2.20;67.80;;;;;;4915290;29;20204;-79
2023/03/03 06:15:39;;;;;;;39.75;19.27;;;2.20;67.70;;;;;;4933145;29;20200;-79
2023/03/03 06:18:08;;;;;;;42.78;18.80;;;2.20;67.70;;;;;;4933353;29;20212;-79
2023/03/03 06:20:37;;;;;;;35.28;19.30;;;2.20;67.70;;;;;;4934946;29;20212;-79
2023/03/03 06:23:05;;;;;;;32.35;17.42;;;2.20;67.70;;;;;;4930308;29;20216;-79
2023/03/03 06:25:36;;;;;;;35.50;19.35;;;2.20;67.60;;;;;;4928760;29;20210;-79
2023/03/03 06:28:04;;;;;;;37.35;18.30;;;2.20;67.60;;;;;;4933398;29;20753;-78
2023/03/03 06:30:32;;;;;;;40.90;21.98;;;2.20;67.60;;;;;;4920713;29;20230;-79
2023/03/03 06:33:01;;;;;;;57.83;28.60;;;2.20;67.50;;;;;;4933699;29;20214;-79
2023/03/03 06:35:29;;;;;;;50.60;26.00;;;2.20;67.50;;;;;;4924383;29;20641;-79
2023/03/03 06:37:57;;;;;;;45.72;22.75;;;2.10;67.50;;;;;;4936303;29;20204;-79
2023/03/03 06:40:25;;;;;;;39.70;23.15;;;2.10;67.70;;;;;;4935484;29;20207;-78
2023/03/03 06:42:53;;;;;;;38.25;21.63;;;2.10;67.80;;;;;;4928658;29;20220;-79
2023/03/03 06:45:21;;;;;;;37.20;21.35;;;2.20;67.90;;;;;;4924693;29;20256;-79
2023/03/03 06:47:49;;;;;;;32.95;18.25;;;2.20;68.00;;;;;;4930856;29;20718;-79
2023/03/03 06:50:20;;;;;;;35.33;19.42;;;2.30;68.00;;;;;;4929281;29;20223;-79
2023/03/03 06:52:48;;;;;;;29.33;17.30;;;2.30;68.10;;;;;;4930974;29;20859;-79
2023/03/03 06:55:22;;;;;;;32.05;16.60;;;2.30;68.10;;;;;;4932993;29;20566;-79
2023/03/03 06:57:50;;;;;;;29.73;17.40;;;2.40;68.10;;;;;;4928367;29;20200;-77
2023/03/03 07:00:20;;;;;;;40.28;18.85;;;2.40;68.20;;;;;;4933054;29;20223;-81
2023/03/03 07:02:53;;;;;;;28.75;16.20;;;2.40;68.00;;;;;;4924046;29;20234;-81
2023/03/03 07:05:26;;;;;;;38.83;18.50;;;2.40;68.10;;;;;;4936295;29;20204;-81
2023/03/03 07:07:55;;;;;;;32.00;17.38;;;2.50;68.00;;;;;;4934110;29;20209;-80
2023/03/03 07:10:25;;;;;;;36.20;18.60;;;2.40;67.90;;;;;;4924719;29;20679;-81
2023/03/03 07:12:53;;;;;;;30.63;17.83;;;2.40;68.10;;;;;;4937394;29;20676;-81
2023/03/03 07:15:23;;;;;;;29.00;17.90;;;2.40;68.20;;;;;;4920435;29;20207;-81
2023/03/03 07:17:58;;;;;;;37.20;18.83;;;2.50;68.30;;;;;;4936313;29;20196;-81
2023/03/03 07:20:34;;;;;;;30.92;18.17;;;2.50;68.40;;;;;;4938399;29;20236;-81
2023/03/03 07:23:09;;;;;;;34.30;17.52;;;2.60;68.40;;;;;;4931712;29;20689;-80
2023/03/03 07:25:37;;;;;;;34.60;17.20;;;2.60;68.40;;;;;;4935201;29;20204;-81
2023/03/03 07:28:16;;;;;;;34.15;18.88;;;2.60;68.40;;;;;;4937386;29;20203;-81
2023/03/03 07:30:44;;;;;;;38.60;18.45;;;2.70;68.50;;;;;;4928779;29;20241;-81
2023/03/03 07:33:24;;;;;;;32.60;19.13;;;2.70;68.50;;;;;;4928826;29;20207;-80
2023/03/03 07:35:55;;;;;;;32.22;16.63;;;2.70;68.60;;;;;;4941983;29;20603;-81
2023/03/03 07:38:34;;;;;;;30.33;18.00;;;2.70;68.60;;;;;;4927533;29;20269;-80
2023/03/03 07:41:05;;;;;;;32.42;18.63;;;2.80;68.70;;;;;;4936951;29;20219;-81
2023/03/03 07:43:37;;;;;;;31.38;18.98;;;2.80;68.80;;;;;;4916295;29;20244;-81
2023/03/03 07:46:23;;;;;;;35.00;19.65;;;2.90;68.90;;;;;;4937272;29;20585;-80
2023/03/03 07:48:52;;;;;;;36.45;20.48;;;2.90;69.00;;;;;;4931062;29;20282;-80
2023/03/03 07:51:26;;;;;;;41.08;21.75;;;3.00;69.10;;;;;;4936833;29;20651;-81
2023/03/03 07:54:00;;;;;;;41.17;21.60;;;3.00;69.10;;;;;;4933471;29;20208;-81
2023/03/03 07:56:33;;;;;;;41.75;21.90;;;3.10;69.20;;;;;;4928497;29;20207;-81
2023/03/03 07:59:11;;;;;;;51.17;26.55;;;3.20;69.30;;;;;;4923325;29;20259;-82
2023/03/03 08:01:41;;;;;;;57.08;30.23;;;3.20;69.40;;;;;;4943050;29;20230;-81
2023/03/03 08:04:29;;;;;;;46.75;27.80;;;3.30;69.40;;;;;;4940760;29;20222;-80
2023/03/03 08:07:00;;;;;;;65.05;33.15;;;3.40;69.60;;;;;;4926418;29;20213;-81
2023/03/03 08:09:42;;;;;;;46.67;24.85;;;3.30;69.90;;;;;;4932349;29;20931;-81
2023/03/03 08:12:29;;;;;;;46.97;26.15;;;3.40;70.00;;;;;;4935590;29;20849;-80
2023/03/03 08:15:10;;;;;;;55.08;27.90;;;3.40;70.20;;;;;;4910535;29;21196;-81
2023/03/03 08:17:39;;;;;;;47.28;27.00;;;3.40;70.20;;;;;;4930900;29;20705;-81
2023/03/03 08:20:44;;;;;;;57.60;31.83;;;3.50;70.30;;;;;;4927869;29;20209;-81
2023/03/03 08:23:15;;;;;;;52.30;29.13;;;3.60;70.60;;;;;;4930616;29;20223;-81
2023/03/03 08:25:44;;;;;;;52.40;27.60;;;3.60;70.50;;;;;;4920985;29;20228;-80
2023/03/03 08:28:13;;;;;;;52.22;28.27;;;3.60;70.50;;;;;;4935017;29;20200;-80
2023/03/03 08:30:41;;;;;;;46.92;25.52;;;3.70;70.70;;;;;;4930441;29;20232;-80
2023/03/03 08:33:09;;;;;;;54.42;30.77;;;3.80;70.90;;;;;;4927382;29;20212;-79
2023/03/03 08:35:37;;;;;;;68.78;39.42;;;3.80;70.90;;;;;;4925436;29;20201;-81
2023/03/03 08:38:06;;;;;;;71.45;43.78;;;3.80;70.90;;;;;;4929975;29;20594;-81
2023/03/03 08:40:35;;;;;;;51.03;30.77;;;3.90;70.90;;;;;;4934872;29;20277;-80
2023/03/03 08:43:03;;;;;;;49.05;25.80;;;4.00;70.90;;;;;;4937767;29;20208;-81
2023/03/03 08:45:32;;;;;;;54.33;26.45;;;4.00;71.10;;;;;;4910002;29;20268;-81
2023/03/03 08:48:00;;;;;;;43.53;25.05;;;4.00;71.10;;;;;;4932184;29;20197;-81
2023/03/03 08:50:31;;;;;;;51.75;28.58;;;4.10;71.20;;;;;;4921783;29;20200;-80
2023/03/03 08:52:59;;;;;;;51.85;28.02;;;4.10;71.40;;;;;;4916426;29;20237;-81
2023/03/03 08:55:27;;;;;;;50.33;28.33;;;4.20;71.40;;;;;;4925557;29;20707;-81
2023/03/03 08:57:56;;;;;;;52.33;27.85;;;4.20;71.50;;;;;;4929700;29;20662;-81
2023/03/03 09:00:26;;;;;;;51.75;29.58;;;4.20;71.50;;;;;;4941935;29;20204;-80
2023/03/03 09:02:55;;;;;;;51.63;28.75;;;4.20;71.50;;;;;;4935963;29;20212;-81
2023/03/03 09:05:29;;;;;;;49.83;27.02;;;4.30;71.60;;;;;;4931605;29;20221;-80
2023/03/03 09:07:58;;;;;;;50.10;29.13;;;4.30;71.60;;;;;;4921139;29;20195;-80
2023/03/03 09:10:28;;;;;;;47.22;27.58;;;4.30;71.70;;;;;;4919729;29;20205;-81
2023/03/03 09:13:00;;;;;;;58.20;28.38;;;4.40;71.70;;;;;;4944110;29;20211;-80
2023/03/03 09:15:30;;;;;;;52.25;27.45;;;4.40;71.90;;;;;;4944715;29;20725;-80
2023/03/03 09:18:00;;;;;;;52.50;28.25;;;4.40;72.30;;;;;;4919417;29;20301;-81
2023/03/03 09:20:33;;;;;;;46.00;25.70;;;4.40;72.40;;;;;;4935196;29;20212;-80
2023/03/03 09:23:25;;;;;;;51.78;27.42;;;4.30;72.60;;;;;;4935217;29;20211;-80
2023/03/03 09:25:53;;;;;;;53.13;27.70;;;4.40;72.40;;;;;;4935622;29;20216;-80
2023/03/03 09:28:26;;;;;;;50.15;26.15;;;4.40;72.60;;;;;;4933524;29;20204;-80
2023/03/03 09:30:57;;;;;;;53.38;28.25;;;4.50;72.30;;;;;;4938345;29;20282;-81
2023/03/03 09:33:28;;;;;;;56.45;29.00;;;4.60;72.40;;;;;;4943392;29;20231;-80
2023/03/03 09:36:03;;;;;;;59.65;28.52;;;4.60;72.40;;;;;;4931778;29;20197;-80
2023/03/03 09:38:33;;;;;;;56.95;26.73;;;4.70;72.40;;;;;;4913434;29;20189;-81
2023/03/03 09:41:20;;;;;;;54.88;27.25;;;4.70;72.30;;;;;;4932021;29;20571;-81
2023/03/03 09:44:03;;;;;;;53.85;27.10;;;4.80;72.30;;;;;;4932694;29;20213;-81
2023/03/03 09:46:40;;;;;;;65.30;33.25;;;4.80;72.20;;;;;;4931896;29;20565;-81
2023/03/03 09:49:23;;;;;;;47.33;26.90;;;4.90;72.20;;;;;;4925404;29;20256;-81
2023/03/03 09:52:16;;;;;;;55.55;26.63;;;4.90;72.20;;;;;;4939200;29;20212;-81
2023/03/03 09:54:54;;;;;;;54.47;29.42;;;5.00;72.20;;;;;;4934623;29;20204;-82
2023/03/03 09:57:30;;;;;;;58.28;27.88;;;5.00;72.30;;;;;;4931138;29;20847;-80
2023/03/03 10:00:22;;;;;;;53.83;27.60;;;5.10;72.20;;;;;;4940189;29;20669;-80
2023/03/03 10:03:03;;;;;;;54.63;25.20;;;5.10;72.30;;;;;;4937683;29;20986;-81
2023/03/03 10:05:43;;;;;;;58.53;25.88;;;5.10;72.30;;;;;;4939311;29;20222;-80
2023/03/03 10:08:27;;;;;;;46.30;24.50;;;5.20;72.10;;;;;;4920081;29;20568;-80
2023/03/03 10:11:09;;;;;;;48.67;26.33;;;5.30;72.10;;;;;;4927658;29;20666;-81
2023/03/03 10:14:10;;;;;;;58.33;28.77;;;5.30;72.10;;;;;;4915247;29;20208;-81
2023/03/03 10:16:58;;;;;;;60.03;31.45;;;5.30;72.20;;;;;;4902243;29;21037;-80
2023/03/03 10:19:40;;;;;;;43.08;24.90;;;5.30;72.20;;;;;;4924884;29;20211;-81
2023/03/03 10:22:19;;;;;;;48.90;25.98;;;5.40;72.20;;;;;;4938508;29;20219;-80
2023/03/03 10:25:04;;;;;;;43.05;24.58;;;5.50;72.00;;;;;;4930181;29;20208;-81
2023/03/03 10:27:51;;;;;;;45.35;23.98;;;5.50;72.00;;;;;;4929114;29;20236;-81
2023/03/03 10:30:31;;;;;;;46.95;25.95;;;5.60;71.90;;;;;;4923698;29;20209;-81
2023/03/03 10:33:22;;;;;;;44.55;25.00;;;5.70;71.90;;;;;;4931803;29;20888;-81
2023/03/03 10:36:16;;;;;;;52.13;26.50;;;5.70;71.80;;;;;;4907993;29;20626;-81
2023/03/03 10:38:54;;;;;;;49.78;26.02;;;5.80;71.70;;;;;;4942466;29;20836;-80
2023/03/03 10:41:48;;;;;;;47.90;24.75;;;5.80;71.70;;;;;;4926574;29;20193;-80
2023/03/03 10:44:29;;;;;;;45.38;25.52;;;5.90;71.60;;;;;;4933383;29;20213;-80
2023/03/03 10:47:25;;;;;;;42.58;23.40;;;5.90;71.60;;;;;;4937676;29;20218;-80
2023/03/03 10:50:08;;;;;;;51.22;26.42;;;5.90;71.60;;;;;;4940127;29;20191;-81
2023/03/03 10:52:43;;;;;;;49.63;27.23;;;6.00;71.40;;;;;;4938313;29;20224;-81
2023/03/03 10:55:33;;;;;;;46.28;23.67;;;6.00;71.40;;;;;;4930605;29;20604;-81
2023/03/03 10:58:33;;;;;;;44.88;23.88;;;6.10;71.30;;;;;;4930813;29;20224;-80
2023/03/03 11:01:12;;;;;;;47.33;24.10;;;6.10;71.40;;;;;;4904180;29;20224;-81
2023/03/03 11:04:05;;;;;;;49.63;23.77;;;6.20;71.40;;;;;;4936380;29;20207;-81
2023/03/03 11:06:41;;;;;;;41.58;22.77;;;6.30;71.40;;;;;;4937055;29;20208;-81
2023/03/03 11:09:24;;;;;;;41.22;22.50;;;6.30;71.20;;;;;;4930921;29;20217;-80
2023/03/03 11:11:58;;;;;;;40.55;21.92;;;6.30;71.30;;;;;;4927580;29;20926;-81
2023/03/03 11:14:31;;;;;;;49.45;25.48;;;6.40;71.10;;;;;;4938141;29;20198;-80
2023/03/03 11:17:05;;;;;;;42.17;23.52;;;6.40;71.00;;;;;;4949729;29;20195;-80
2023/03/03 11:19:51;;;;;;;40.80;23.65;;;6.50;71.00;;;;;;4945792;29;20763;-80
2023/03/03 11:22:33;;;;;;;49.40;25.27;;;6.50;71.00;;;;;;4929847;29;20290;-80
2023/03/03 11:25:12;;;;;;;44.20;24.10;;;6.50;71.10;;;;;;4927975;29;20259;-81
2023/03/03 11:28:04;;;;;;;44.50;22.02;;;6.60;70.90;;;;;;4940281;29;20668;-79
2023/03/03 11:30:47;;;;;;;41.03;22.85;;;6.70;71.20;;;;;;4932392;29;20238;-77
2023/03/03 11:33:22;;;;;;;37.42;20.40;;;6.80;71.20;;;;;;4931939;29;20217;-78
2023/03/03 11:35:59;;;;;;;43.83;22.97;;;7.10;71.10;;;;;;4926650;29;20203;-78
2023/03/03 11:38:40;;;;;;;41.33;21.75;;;7.40;70.80;;;;;;4932600;29;20480;-78
2023/03/03 11:41:20;;;;;;;42.93;21.20;;;7.60;70.60;;;;;;4936602;29;20219;-78
2023/03/03 11:43:52;;;;;;;35.40;21.00;;;7.70;69.70;;;;;;4934726;29;20743;-77
2023/03/03 11:46:25;;;;;;;35.33;19.63;;;7.70;70.10;;;;;;4937457;29;21023;-78
2023/03/03 11:49:00;;;;;;;43.53;21.88;;;7.90;69.70;;;;;;4931525;29;20200;-78
2023/03/03 11:51:41;;;;;;;36.75;21.63;;;8.00;69.30;;;;;;4939401;29;20362;-78
2023/03/03 11:54:21;;;;;;;33.67;20.23;;;8.00;69.00;;;;;;4938622;29;20211;-77
2023/03/03 11:56:49;;;;;;;33.37;18.83;;;8.10;69.00;;;;;;4938914;29;20465;-78
2023/03/03 11:59:43;;;;;;;33.25;19.45;;;8.10;68.80;;;;;;4933260;29;20967;-78
2023/03/03 12:02:24;;;;;;;33.33;18.30;;;8.20;68.10;;;;;;4935577;29;20586;-78
2023/03/03 12:04:57;;;;;;;32.00;18.50;;;8.20;68.20;;;;;;4937696;29;20895;-78
2023/03/03 12:07:32;;;;;;;33.47;19.83;;;8.20;68.20;;;;;;4942865;29;20495;-78
2023/03/03 12:10:17;;;;;;;35.25;21.05;;;8.20;68.10;;;;;;4941092;29;20471;-79
2023/03/03 12:12:52;;;;;;;38.70;20.40;;;8.30;68.00;;;;;;4921552;29;20216;-78
2023/03/03 12:15:29;;;;;;;40.90;20.93;;;8.30;67.90;;;;;;4943993;29;20950;-79
2023/03/03 12:18:42;;;;;;;33.93;20.30;;;8.30;67.60;;;;;;4945789;29;21105;-79
2023/03/03 12:21:26;;;;;;;41.83;23.10;;;8.40;67.70;;;;;;4898635;29;20467;-79
2023/03/03 12:24:07;;;;;;;37.50;20.13;;;8.40;67.60;;;;;;4935703;29;20459;-78
2023/03/03 12:26:47;;;;;;;44.75;23.08;;;8.40;67.30;;;;;;4929556;29;21184;-78
2023/03/03 12:29:27;;;;;;;34.73;19.23;;;8.40;67.20;;;;;;4937845;29;20213;-78
2023/03/03 12:32:03;;;;;;;43.27;22.47;;;8.50;66.40;;;;;;4935865;29;20513;-78
2023/03/03 12:34:40;;;;;;;41.83;21.90;;;8.50;66.20;;;;;;4934022;29;20559;-78
2023/03/03 12:37:29;;;;;;;34.03;19.33;;;8.50;65.60;;;;;;4939581;29;20455;-78
2023/03/03 12:40:07;;;;;;;35.77;19.10;;;8.60;66.30;;;;;;4938097;29;20474;-77
2023/03/03 12:42:49;;;;;;;35.87;20.63;;;8.60;66.30;;;;;;4937750;29;21150;-77
2023/03/03 12:45:33;;;;;;;40.23;22.30;;;8.60;65.70;;;;;;4933574;29;20973;-78
2023/03/03 12:48:08;;;;;;;35.00;21.00;;;8.70;66.30;;;;;;4837825;29;20500;-79
2023/03/03 12:50:50;;;;;;;40.33;22.13;;;8.80;66.00;;;;;;4890554;29;20550;-78
2023/03/03 12:53:28;;;;;;;34.87;20.07;;;8.80;65.80;;;;;;4909468;29;20494;-78
2023/03/03 12:56:03;;;;;;;34.47;21.07;;;8.80;65.60;;;;;;4889504;29;21019;-78
2023/03/03 12:58:43;;;;;;;37.00;21.60;;;8.90;65.50;;;;;;4907010;29;20985;-78
2023/03/03 13:01:27;;;;;;;35.73;20.30;;;8.90;65.60;;;;;;4927248;29;20587;-78
2023/03/03 13:04:05;;;;;;;35.77;22.63;;;8.90;64.40;;;;;;4907130;29;20555;-78
2023/03/03 13:06:40;;;;;;;34.40;20.70;;;9.00;65.30;;;;;;4887260;29;20534;-79
2023/03/03 13:09:22;;;;;;;46.93;22.53;;;9.00;65.40;;;;;;4926322;29;20472;-79